sensor_id;sensor_type;location;lat;lon;timestamp;P1;durP1;ratioP1;P2;durP2;ratioP2
21091;SDS011;10704;42.678;23.288;2024-01-25T00:01:41;34.30;;;17.73;;
21091;SDS011;10704;42.678;23.288;2024-01-25T00:04:07;37.15;;;19.45;;
21091;SDS011;10704;42.678;23.288;2024-01-25T00:06:32;36.47;;;19.30;;
21091;SDS011;10704;42.678;23.288;2024-01-25T00:08:58;32.45;;;16.67;;
21091;SDS011;10704;42.678;23.288;2024-01-25T00:11:26;38.03;;;18.00;;
21091;SDS011;10704;42.678;23.288;2024-01-25T00:13:52;27.88;;;15.43;;
21091;SDS011;10704;42.678;23.288;2024-01-25T00:16:17;40.47;;;17.85;;
21091;SDS011;10704;42.678;23.288;2024-01-25T00:18:43;32.97;;;18.02;;
21091;SDS011;10704;42.678;23.288;2024-01-25T00:21:09;33.22;;;16.83;;
21091;SDS011;10704;42.678;23.288;2024-01-25T00:23:35;33.28;;;16.38;;
21091;SDS011;10704;42.678;23.288;2024-01-25T00:26:01;31.65;;;15.80;;
21091;SDS011;10704;42.678;23.288;2024-01-25T00:28:27;32.97;;;15.95;;
21091;SDS011;10704;42.678;23.288;2024-01-25T00:30:54;36.65;;;16.52;;
21091;SDS011;10704;42.678;23.288;2024-01-25T00:33:20;27.58;;;15.30;;
21091;SDS011;10704;42.678;23.288;2024-01-25T00:35:46;27.55;;;15.43;;
21091;SDS011;10704;42.678;23.288;2024-01-25T00:38:13;31.20;;;15.85;;
21091;SDS011;10704;42.678;23.288;2024-01-25T00:40:39;30.38;;;16.33;;
21091;SDS011;10704;42.678;23.288;2024-01-25T00:43:05;31.65;;;15.80;;
21091;SDS011;10704;42.678;23.288;2024-01-25T00:45:31;31.77;;;15.32;;
21091;SDS011;10704;42.678;23.288;2024-01-25T00:47:58;27.15;;;15.20;;
21091;SDS011;10704;42.678;23.288;2024-01-25T00:50:24;26.85;;;13.65;;
21091;SDS011;10704;42.678;23.288;2024-01-25T00:52:51;32.42;;;14.73;;
21091;SDS011;10704;42.678;23.288;2024-01-25T00:55:17;28.10;;;14.30;;
21091;SDS011;10704;42.678;23.288;2024-01-25T00:57:44;29.23;;;14.30;;
21091;SDS011;10704;42.678;23.288;2024-01-25T01:00:10;27.88;;;14.70;;
21091;SDS011;10704;42.678;23.288;2024-01-25T01:02:39;32.50;;;15.75;;
21091;SDS011;10704;42.678;23.288;2024-01-25T01:05:06;26.63;;;14.93;;
21091;SDS011;10704;42.678;23.288;2024-01-25T01:07:33;30.75;;;15.88;;
21091;SDS011;10704;42.678;23.288;2024-01-25T01:09:59;32.60;;;16.58;;
21091;SDS011;10704;42.678;23.288;2024-01-25T01:12:25;29.90;;;15.27;;
21091;SDS011;10704;42.678;23.288;2024-01-25T01:14:51;31.42;;;15.38;;
21091;SDS011;10704;42.678;23.288;2024-01-25T01:17:17;27.77;;;14.63;;
21091;SDS011;10704;42.678;23.288;2024-01-25T01:19:44;27.73;;;13.30;;
21091;SDS011;10704;42.678;23.288;2024-01-25T01:22:10;28.60;;;14.13;;
21091;SDS011;10704;42.678;23.288;2024-01-25T01:24:36;25.00;;;13.38;;
21091;SDS011;10704;42.678;23.288;2024-01-25T01:27:02;21.23;;;10.55;;
21091;SDS011;10704;42.678;23.288;2024-01-25T01:29:28;19.48;;;9.43;;
21091;SDS011;10704;42.678;23.288;2024-01-25T01:31:54;18.20;;;8.55;;
21091;SDS011;10704;42.678;23.288;2024-01-25T01:34:19;16.50;;;8.63;;
21091;SDS011;10704;42.678;23.288;2024-01-25T01:36:45;15.23;;;6.82;;
21091;SDS011;10704;42.678;23.288;2024-01-25T01:39:11;16.33;;;7.72;;
21091;SDS011;10704;42.678;23.288;2024-01-25T01:41:38;10.75;;;6.25;;
21091;SDS011;10704;42.678;23.288;2024-01-25T01:44:04;19.05;;;7.32;;
21091;SDS011;10704;42.678;23.288;2024-01-25T01:46:36;13.32;;;5.32;;
21091;SDS011;10704;42.678;23.288;2024-01-25T01:49:06;13.07;;;5.53;;
21091;SDS011;10704;42.678;23.288;2024-01-25T01:51:34;9.13;;;4.47;;
21091;SDS011;10704;42.678;23.288;2024-01-25T01:54:00;10.10;;;4.63;;
21091;SDS011;10704;42.678;23.288;2024-01-25T01:56:28;4.93;;;2.50;;
21091;SDS011;10704;42.678;23.288;2024-01-25T01:59:04;5.30;;;2.42;;
21091;SDS011;10704;42.678;23.288;2024-01-25T02:01:32;5.72;;;2.25;;
21091;SDS011;10704;42.678;23.288;2024-01-25T02:03:58;5.45;;;1.67;;
21091;SDS011;10704;42.678;23.288;2024-01-25T02:06:24;4.97;;;2.03;;
21091;SDS011;10704;42.678;23.288;2024-01-25T02:08:51;4.13;;;1.95;;
21091;SDS011;10704;42.678;23.288;2024-01-25T02:11:24;4.95;;;2.10;;
21091;SDS011;10704;42.678;23.288;2024-01-25T02:13:50;9.13;;;2.95;;
21091;SDS011;10704;42.678;23.288;2024-01-25T02:16:16;12.52;;;4.18;;
21091;SDS011;10704;42.678;23.288;2024-01-25T02:18:45;7.47;;;3.83;;
21091;SDS011;10704;42.678;23.288;2024-01-25T02:21:12;8.85;;;4.35;;
21091;SDS011;10704;42.678;23.288;2024-01-25T02:23:38;9.82;;;5.05;;
21091;SDS011;10704;42.678;23.288;2024-01-25T02:26:04;7.90;;;4.50;;
21091;SDS011;10704;42.678;23.288;2024-01-25T02:28:30;9.15;;;4.45;;
21091;SDS011;10704;42.678;23.288;2024-01-25T02:30:56;7.35;;;2.95;;
21091;SDS011;10704;42.678;23.288;2024-01-25T02:33:23;6.22;;;2.10;;
21091;SDS011;10704;42.678;23.288;2024-01-25T02:43:42;6.28;;;2.50;;
21091;SDS011;10704;42.678;23.288;2024-01-25T02:46:09;5.53;;;2.40;;
21091;SDS011;10704;42.678;23.288;2024-01-25T02:48:35;4.18;;;2.30;;
21091;SDS011;10704;42.678;23.288;2024-01-25T02:51:01;6.30;;;2.47;;
21091;SDS011;10704;42.678;23.288;2024-01-25T02:53:27;3.95;;;2.25;;
21091;SDS011;10704;42.678;23.288;2024-01-25T02:55:52;5.53;;;2.47;;
21091;SDS011;10704;42.678;23.288;2024-01-25T02:58:18;4.07;;;1.85;;
21091;SDS011;10704;42.678;23.288;2024-01-25T03:00:44;3.03;;;1.60;;
21091;SDS011;10704;42.678;23.288;2024-01-25T03:03:10;5.18;;;1.40;;
21091;SDS011;10704;42.678;23.288;2024-01-25T03:05:36;5.05;;;1.70;;
21091;SDS011;10704;42.678;23.288;2024-01-25T03:08:02;5.03;;;1.38;;
21091;SDS011;10704;42.678;23.288;2024-01-25T03:10:28;1.88;;;0.98;;
21091;SDS011;10704;42.678;23.288;2024-01-25T03:12:54;2.40;;;0.50;;
21091;SDS011;10704;42.678;23.288;2024-01-25T03:15:20;1.17;;;0.50;;
21091;SDS011;10704;42.678;23.288;2024-01-25T03:17:46;2.45;;;0.55;;
21091;SDS011;10704;42.678;23.288;2024-01-25T03:20:12;2.28;;;0.60;;
21091;SDS011;10704;42.678;23.288;2024-01-25T03:22:38;1.17;;;0.50;;
21091;SDS011;10704;42.678;23.288;2024-01-25T03:25:04;1.38;;;0.68;;
21091;SDS011;10704;42.678;23.288;2024-01-25T03:27:30;1.27;;;0.70;;
21091;SDS011;10704;42.678;23.288;2024-01-25T03:29:56;2.28;;;0.55;;
21091;SDS011;10704;42.678;23.288;2024-01-25T03:32:23;4.32;;;0.70;;
21091;SDS011;10704;42.678;23.288;2024-01-25T03:34:49;2.72;;;0.70;;
21091;SDS011;10704;42.678;23.288;2024-01-25T03:37:15;1.58;;;0.57;;
21091;SDS011;10704;42.678;23.288;2024-01-25T03:39:40;1.88;;;0.73;;
21091;SDS011;10704;42.678;23.288;2024-01-25T03:42:07;3.22;;;0.60;;
21091;SDS011;10704;42.678;23.288;2024-01-25T03:44:33;2.15;;;0.60;;
21091;SDS011;10704;42.678;23.288;2024-01-25T03:46:59;2.47;;;0.80;;
21091;SDS011;10704;42.678;23.288;2024-01-25T03:49:24;1.33;;;0.70;;
21091;SDS011;10704;42.678;23.288;2024-01-25T03:51:50;2.58;;;0.80;;
21091;SDS011;10704;42.678;23.288;2024-01-25T03:54:16;1.40;;;0.80;;
21091;SDS011;10704;42.678;23.288;2024-01-25T03:56:42;1.80;;;0.60;;
21091;SDS011;10704;42.678;23.288;2024-01-25T03:59:08;1.90;;;0.95;;
21091;SDS011;10704;42.678;23.288;2024-01-25T04:01:43;3.08;;;0.80;;
21091;SDS011;10704;42.678;23.288;2024-01-25T04:04:10;2.38;;;0.70;;
21091;SDS011;10704;42.678;23.288;2024-01-25T04:06:42;1.88;;;0.82;;
21091;SDS011;10704;42.678;23.288;2024-01-25T04:09:11;3.00;;;0.82;;
21091;SDS011;10704;42.678;23.288;2024-01-25T04:11:37;2.33;;;0.80;;
21091;SDS011;10704;42.678;23.288;2024-01-25T04:14:03;2.38;;;0.90;;
21091;SDS011;10704;42.678;23.288;2024-01-25T04:16:30;2.80;;;0.90;;
21091;SDS011;10704;42.678;23.288;2024-01-25T04:18:57;1.48;;;0.65;;
21091;SDS011;10704;42.678;23.288;2024-01-25T04:21:23;2.13;;;0.82;;
21091;SDS011;10704;42.678;23.288;2024-01-25T04:23:49;2.78;;;0.90;;
21091;SDS011;10704;42.678;23.288;2024-01-25T04:26:15;2.50;;;0.70;;
21091;SDS011;10704;42.678;23.288;2024-01-25T04:32:29;1.73;;;0.70;;
21091;SDS011;10704;42.678;23.288;2024-01-25T04:34:55;5.28;;;1.38;;
21091;SDS011;10704;42.678;23.288;2024-01-25T04:37:21;3.42;;;1.52;;
21091;SDS011;10704;42.678;23.288;2024-01-25T04:39:48;5.28;;;0.82;;
21091;SDS011;10704;42.678;23.288;2024-01-25T04:42:14;3.50;;;1.10;;
21091;SDS011;10704;42.678;23.288;2024-01-25T04:48:28;5.95;;;2.25;;
21091;SDS011;10704;42.678;23.288;2024-01-25T04:50:56;4.78;;;2.60;;
21091;SDS011;10704;42.678;23.288;2024-01-25T04:53:23;8.32;;;3.42;;
21091;SDS011;10704;42.678;23.288;2024-01-25T04:55:50;7.10;;;3.45;;
21091;SDS011;10704;42.678;23.288;2024-01-25T04:58:15;11.40;;;3.53;;
21091;SDS011;10704;42.678;23.288;2024-01-25T05:00:41;9.40;;;3.22;;
21091;SDS011;10704;42.678;23.288;2024-01-25T05:03:07;8.30;;;3.33;;
21091;SDS011;10704;42.678;23.288;2024-01-25T05:05:33;6.05;;;2.63;;
21091;SDS011;10704;42.678;23.288;2024-01-25T05:07:59;9.18;;;2.45;;
21091;SDS011;10704;42.678;23.288;2024-01-25T05:10:25;4.63;;;2.22;;
21091;SDS011;10704;42.678;23.288;2024-01-25T05:12:51;5.97;;;1.90;;
21091;SDS011;10704;42.678;23.288;2024-01-25T05:15:17;6.85;;;2.25;;
21091;SDS011;10704;42.678;23.288;2024-01-25T05:17:43;4.95;;;2.00;;
21091;SDS011;10704;42.678;23.288;2024-01-25T05:20:09;2.63;;;1.35;;
21091;SDS011;10704;42.678;23.288;2024-01-25T05:22:35;4.82;;;1.55;;
21091;SDS011;10704;42.678;23.288;2024-01-25T05:25:05;4.70;;;1.52;;
21091;SDS011;10704;42.678;23.288;2024-01-25T05:27:33;4.35;;;2.10;;
21091;SDS011;10704;42.678;23.288;2024-01-25T05:29:59;6.28;;;1.25;;
21091;SDS011;10704;42.678;23.288;2024-01-25T05:32:25;6.00;;;1.70;;
21091;SDS011;10704;42.678;23.288;2024-01-25T05:34:51;4.88;;;1.95;;
21091;SDS011;10704;42.678;23.288;2024-01-25T05:37:17;3.70;;;1.15;;
21091;SDS011;10704;42.678;23.288;2024-01-25T05:39:43;5.68;;;1.45;;
21091;SDS011;10704;42.678;23.288;2024-01-25T05:42:09;7.43;;;1.17;;
21091;SDS011;10704;42.678;23.288;2024-01-25T05:44:35;4.80;;;1.10;;
21091;SDS011;10704;42.678;23.288;2024-01-25T05:47:02;3.15;;;1.10;;
21091;SDS011;10704;42.678;23.288;2024-01-25T05:49:28;4.72;;;1.45;;
21091;SDS011;10704;42.678;23.288;2024-01-25T05:51:53;4.90;;;1.40;;
21091;SDS011;10704;42.678;23.288;2024-01-25T05:54:20;4.07;;;1.20;;
21091;SDS011;10704;42.678;23.288;2024-01-25T05:56:46;7.68;;;1.30;;
21091;SDS011;10704;42.678;23.288;2024-01-25T05:59:12;2.30;;;1.10;;
21091;SDS011;10704;42.678;23.288;2024-01-25T06:01:38;6.25;;;1.90;;
21091;SDS011;10704;42.678;23.288;2024-01-25T06:04:04;3.00;;;1.38;;
21091;SDS011;10704;42.678;23.288;2024-01-25T06:06:29;4.55;;;1.40;;
21091;SDS011;10704;42.678;23.288;2024-01-25T06:08:55;4.05;;;1.58;;
21091;SDS011;10704;42.678;23.288;2024-01-25T06:11:21;5.82;;;1.70;;
21091;SDS011;10704;42.678;23.288;2024-01-25T06:13:47;4.38;;;1.75;;
21091;SDS011;10704;42.678;23.288;2024-01-25T06:16:13;5.80;;;1.80;;
21091;SDS011;10704;42.678;23.288;2024-01-25T06:18:39;7.80;;;1.90;;
21091;SDS011;10704;42.678;23.288;2024-01-25T06:21:05;5.70;;;1.88;;
21091;SDS011;10704;42.678;23.288;2024-01-25T06:23:31;4.07;;;1.25;;
21091;SDS011;10704;42.678;23.288;2024-01-25T06:25:57;5.38;;;1.63;;
21091;SDS011;10704;42.678;23.288;2024-01-25T06:28:23;5.13;;;1.50;;
21091;SDS011;10704;42.678;23.288;2024-01-25T06:30:49;5.05;;;1.30;;
21091;SDS011;10704;42.678;23.288;2024-01-25T06:33:15;5.90;;;1.95;;
21091;SDS011;10704;42.678;23.288;2024-01-25T06:35:42;7.78;;;2.30;;
21091;SDS011;10704;42.678;23.288;2024-01-25T06:38:08;9.77;;;3.60;;
21091;SDS011;10704;42.678;23.288;2024-01-25T06:40:35;7.20;;;2.40;;
21091;SDS011;10704;42.678;23.288;2024-01-25T06:43:01;7.80;;;2.25;;
21091;SDS011;10704;42.678;23.288;2024-01-25T06:45:27;5.40;;;2.90;;
21091;SDS011;10704;42.678;23.288;2024-01-25T06:47:52;10.82;;;3.33;;
21091;SDS011;10704;42.678;23.288;2024-01-25T06:50:18;11.65;;;3.97;;
21091;SDS011;10704;42.678;23.288;2024-01-25T06:52:44;8.88;;;4.03;;
21091;SDS011;10704;42.678;23.288;2024-01-25T06:55:10;10.35;;;4.78;;
21091;SDS011;10704;42.678;23.288;2024-01-25T06:57:37;11.57;;;4.15;;
21091;SDS011;10704;42.678;23.288;2024-01-25T07:00:04;11.32;;;3.83;;
21091;SDS011;10704;42.678;23.288;2024-01-25T07:02:31;9.07;;;3.72;;
21091;SDS011;10704;42.678;23.288;2024-01-25T07:04:57;7.00;;;3.20;;
21091;SDS011;10704;42.678;23.288;2024-01-25T07:07:23;11.93;;;3.38;;
21091;SDS011;10704;42.678;23.288;2024-01-25T07:09:49;9.38;;;3.55;;
21091;SDS011;10704;42.678;23.288;2024-01-25T07:12:15;8.07;;;2.60;;
21091;SDS011;10704;42.678;23.288;2024-01-25T07:14:41;12.48;;;3.40;;
21091;SDS011;10704;42.678;23.288;2024-01-25T07:17:07;8.15;;;2.60;;
21091;SDS011;10704;42.678;23.288;2024-01-25T07:19:33;7.65;;;2.03;;
21091;SDS011;10704;42.678;23.288;2024-01-25T07:21:59;8.80;;;2.58;;
21091;SDS011;10704;42.678;23.288;2024-01-25T07:24:25;5.55;;;2.10;;
21091;SDS011;10704;42.678;23.288;2024-01-25T07:26:52;6.13;;;2.40;;
21091;SDS011;10704;42.678;23.288;2024-01-25T07:29:18;7.25;;;1.83;;
21091;SDS011;10704;42.678;23.288;2024-01-25T07:31:44;8.07;;;2.30;;
21091;SDS011;10704;42.678;23.288;2024-01-25T07:34:09;11.35;;;2.38;;
21091;SDS011;10704;42.678;23.288;2024-01-25T07:36:35;7.55;;;2.35;;
21091;SDS011;10704;42.678;23.288;2024-01-25T07:39:01;7.95;;;2.63;;
21091;SDS011;10704;42.678;23.288;2024-01-25T07:41:28;8.25;;;3.15;;
21091;SDS011;10704;42.678;23.288;2024-01-25T07:43:54;9.13;;;2.80;;
21091;SDS011;10704;42.678;23.288;2024-01-25T07:46:21;6.68;;;2.05;;
21091;SDS011;10704;42.678;23.288;2024-01-25T07:48:49;11.82;;;2.35;;
21091;SDS011;10704;42.678;23.288;2024-01-25T07:51:15;9.70;;;2.88;;
21091;SDS011;10704;42.678;23.288;2024-01-25T07:53:41;6.85;;;2.35;;
21091;SDS011;10704;42.678;23.288;2024-01-25T07:56:08;16.25;;;3.63;;
21091;SDS011;10704;42.678;23.288;2024-01-25T07:58:37;11.55;;;3.45;;
21091;SDS011;10704;42.678;23.288;2024-01-25T08:01:04;9.10;;;2.88;;
21091;SDS011;10704;42.678;23.288;2024-01-25T08:03:34;12.02;;;4.00;;
21091;SDS011;10704;42.678;23.288;2024-01-25T08:06:01;7.35;;;2.42;;
21091;SDS011;10704;42.678;23.288;2024-01-25T08:08:27;8.43;;;2.55;;
21091;SDS011;10704;42.678;23.288;2024-01-25T08:10:53;5.88;;;1.92;;
21091;SDS011;10704;42.678;23.288;2024-01-25T08:13:19;13.07;;;3.28;;
21091;SDS011;10704;42.678;23.288;2024-01-25T08:15:46;11.52;;;3.58;;
21091;SDS011;10704;42.678;23.288;2024-01-25T08:18:12;11.95;;;3.10;;
21091;SDS011;10704;42.678;23.288;2024-01-25T08:20:38;9.57;;;3.40;;
21091;SDS011;10704;42.678;23.288;2024-01-25T08:23:03;11.25;;;4.22;;
21091;SDS011;10704;42.678;23.288;2024-01-25T08:25:29;15.00;;;6.30;;
21091;SDS011;10704;42.678;23.288;2024-01-25T08:27:56;27.33;;;12.48;;
21091;SDS011;10704;42.678;23.288;2024-01-25T08:30:21;11.60;;;5.28;;
21091;SDS011;10704;42.678;23.288;2024-01-25T08:32:47;11.45;;;5.03;;
21091;SDS011;10704;42.678;23.288;2024-01-25T08:35:13;11.25;;;3.88;;
21091;SDS011;10704;42.678;23.288;2024-01-25T08:37:39;16.00;;;5.47;;
21091;SDS011;10704;42.678;23.288;2024-01-25T08:40:05;14.90;;;4.40;;
21091;SDS011;10704;42.678;23.288;2024-01-25T08:42:35;18.30;;;7.45;;
21091;SDS011;10704;42.678;23.288;2024-01-25T08:45:01;14.77;;;4.70;;
21091;SDS011;10704;42.678;23.288;2024-01-25T08:47:27;21.25;;;7.60;;
21091;SDS011;10704;42.678;23.288;2024-01-25T08:49:53;14.60;;;5.07;;
21091;SDS011;10704;42.678;23.288;2024-01-25T08:52:19;11.48;;;2.45;;
21091;SDS011;10704;42.678;23.288;2024-01-25T08:54:45;13.35;;;5.13;;
21091;SDS011;10704;42.678;23.288;2024-01-25T08:57:10;7.28;;;2.85;;
21091;SDS011;10704;42.678;23.288;2024-01-25T08:59:36;8.18;;;2.55;;
21091;SDS011;10704;42.678;23.288;2024-01-25T09:02:05;6.97;;;2.65;;
21091;SDS011;10704;42.678;23.288;2024-01-25T09:04:32;5.85;;;2.75;;
21091;SDS011;10704;42.678;23.288;2024-01-25T09:06:58;12.57;;;2.67;;
21091;SDS011;10704;42.678;23.288;2024-01-25T09:09:24;10.50;;;2.70;;
21091;SDS011;10704;42.678;23.288;2024-01-25T09:11:50;11.35;;;4.15;;
21091;SDS011;10704;42.678;23.288;2024-01-25T09:14:16;15.07;;;4.80;;
21091;SDS011;10704;42.678;23.288;2024-01-25T09:16:42;17.33;;;7.32;;
21091;SDS011;10704;42.678;23.288;2024-01-25T09:19:09;13.45;;;5.13;;
21091;SDS011;10704;42.678;23.288;2024-01-25T09:21:37;11.73;;;4.30;;
21091;SDS011;10704;42.678;23.288;2024-01-25T09:24:04;12.63;;;3.95;;
21091;SDS011;10704;42.678;23.288;2024-01-25T09:26:31;10.25;;;4.18;;
21091;SDS011;10704;42.678;23.288;2024-01-25T09:28:57;9.88;;;4.13;;
21091;SDS011;10704;42.678;23.288;2024-01-25T09:31:23;11.27;;;3.70;;
21091;SDS011;10704;42.678;23.288;2024-01-25T09:33:49;11.38;;;3.90;;
21091;SDS011;10704;42.678;23.288;2024-01-25T09:36:18;9.82;;;3.03;;
21091;SDS011;10704;42.678;23.288;2024-01-25T09:38:44;7.95;;;2.97;;
21091;SDS011;10704;42.678;23.288;2024-01-25T09:41:11;8.40;;;3.90;;
21091;SDS011;10704;42.678;23.288;2024-01-25T09:43:37;12.10;;;4.50;;
21091;SDS011;10704;42.678;23.288;2024-01-25T09:46:03;12.45;;;3.97;;
21091;SDS011;10704;42.678;23.288;2024-01-25T09:48:32;11.27;;;3.35;;
21091;SDS011;10704;42.678;23.288;2024-01-25T09:50:58;11.38;;;4.10;;
21091;SDS011;10704;42.678;23.288;2024-01-25T09:53:24;14.90;;;5.07;;
21091;SDS011;10704;42.678;23.288;2024-01-25T09:58:42;8.85;;;3.50;;
21091;SDS011;10704;42.678;23.288;2024-01-25T10:01:14;13.07;;;3.85;;
21091;SDS011;10704;42.678;23.288;2024-01-25T10:03:47;9.73;;;2.65;;
21091;SDS011;10704;42.678;23.288;2024-01-25T10:06:13;12.20;;;4.10;;
21091;SDS011;10704;42.678;23.288;2024-01-25T10:08:40;11.40;;;4.28;;
21091;SDS011;10704;42.678;23.288;2024-01-25T10:11:07;13.63;;;4.13;;
21091;SDS011;10704;42.678;23.288;2024-01-25T10:13:42;10.32;;;2.80;;
21091;SDS011;10704;42.678;23.288;2024-01-25T10:18:40;9.93;;;3.15;;
21091;SDS011;10704;42.678;23.288;2024-01-25T10:21:09;16.33;;;4.57;;
21091;SDS011;10704;42.678;23.288;2024-01-25T10:23:36;7.97;;;3.00;;
21091;SDS011;10704;42.678;23.288;2024-01-25T10:26:02;12.93;;;5.22;;
21091;SDS011;10704;42.678;23.288;2024-01-25T10:28:28;15.93;;;4.90;;
21091;SDS011;10704;42.678;23.288;2024-01-25T10:31:00;12.63;;;4.70;;
21091;SDS011;10704;42.678;23.288;2024-01-25T10:33:29;15.32;;;4.93;;
21091;SDS011;10704;42.678;23.288;2024-01-25T10:35:58;19.05;;;4.40;;
21091;SDS011;10704;42.678;23.288;2024-01-25T10:38:32;16.02;;;5.32;;
21091;SDS011;10704;42.678;23.288;2024-01-25T10:41:01;14.07;;;4.88;;
21091;SDS011;10704;42.678;23.288;2024-01-25T10:43:28;13.70;;;5.00;;
21091;SDS011;10704;42.678;23.288;2024-01-25T10:45:58;22.48;;;7.90;;
21091;SDS011;10704;42.678;23.288;2024-01-25T10:48:25;17.45;;;6.50;;
21091;SDS011;10704;42.678;23.288;2024-01-25T10:50:52;11.15;;;5.00;;
21091;SDS011;10704;42.678;23.288;2024-01-25T10:53:19;12.50;;;4.32;;
21091;SDS011;10704;42.678;23.288;2024-01-25T10:55:46;18.13;;;4.80;;
21091;SDS011;10704;42.678;23.288;2024-01-25T10:58:15;24.73;;;9.98;;
21091;SDS011;10704;42.678;23.288;2024-01-25T11:00:49;24.17;;;10.55;;
21091;SDS011;10704;42.678;23.288;2024-01-25T11:03:25;12.30;;;5.22;;
21091;SDS011;10704;42.678;23.288;2024-01-25T11:06:05;15.23;;;4.85;;
21091;SDS011;10704;42.678;23.288;2024-01-25T11:08:35;10.40;;;3.70;;
21091;SDS011;10704;42.678;23.288;2024-01-25T11:11:05;10.70;;;3.95;;
21091;SDS011;10704;42.678;23.288;2024-01-25T11:13:43;8.48;;;3.35;;
21091;SDS011;10704;42.678;23.288;2024-01-25T11:16:24;11.40;;;3.35;;
21091;SDS011;10704;42.678;23.288;2024-01-25T11:18:57;10.38;;;3.15;;
21091;SDS011;10704;42.678;23.288;2024-01-25T11:21:43;9.77;;;3.38;;
21091;SDS011;10704;42.678;23.288;2024-01-25T11:24:14;12.27;;;3.55;;
21091;SDS011;10704;42.678;23.288;2024-01-25T11:26:51;9.40;;;3.15;;
21091;SDS011;10704;42.678;23.288;2024-01-25T11:29:20;10.70;;;5.47;;
21091;SDS011;10704;42.678;23.288;2024-01-25T11:31:48;17.13;;;4.93;;
21091;SDS011;10704;42.678;23.288;2024-01-25T11:34:15;13.25;;;5.35;;
21091;SDS011;10704;42.678;23.288;2024-01-25T11:36:43;11.45;;;4.18;;
21091;SDS011;10704;42.678;23.288;2024-01-25T11:39:10;10.63;;;3.30;;
21091;SDS011;10704;42.678;23.288;2024-01-25T11:41:37;12.02;;;3.58;;
21091;SDS011;10704;42.678;23.288;2024-01-25T11:44:03;16.05;;;4.38;;
21091;SDS011;10704;42.678;23.288;2024-01-25T11:46:30;12.25;;;3.83;;
21091;SDS011;10704;42.678;23.288;2024-01-25T11:48:59;11.80;;;3.75;;
21091;SDS011;10704;42.678;23.288;2024-01-25T11:51:25;14.77;;;5.18;;
21091;SDS011;10704;42.678;23.288;2024-01-25T11:53:51;20.35;;;7.60;;
21091;SDS011;10704;42.678;23.288;2024-01-25T11:56:19;16.33;;;7.03;;
21091;SDS011;10704;42.678;23.288;2024-01-25T11:58:48;20.20;;;5.78;;
21091;SDS011;10704;42.678;23.288;2024-01-25T12:01:14;15.15;;;4.68;;
21091;SDS011;10704;42.678;23.288;2024-01-25T12:03:41;12.60;;;3.53;;
21091;SDS011;10704;42.678;23.288;2024-01-25T12:06:07;10.45;;;3.70;;
21091;SDS011;10704;42.678;23.288;2024-01-25T12:08:34;10.30;;;3.40;;
21091;SDS011;10704;42.678;23.288;2024-01-25T12:11:08;16.92;;;5.75;;
21091;SDS011;10704;42.678;23.288;2024-01-25T12:13:44;19.13;;;6.70;;
21091;SDS011;10704;42.678;23.288;2024-01-25T12:16:10;13.77;;;5.93;;
21091;SDS011;10704;42.678;23.288;2024-01-25T12:18:37;12.60;;;4.00;;
21091;SDS011;10704;42.678;23.288;2024-01-25T12:21:05;10.55;;;2.83;;
21091;SDS011;10704;42.678;23.288;2024-01-25T12:26:10;14.88;;;3.20;;
21091;SDS011;10704;42.678;23.288;2024-01-25T12:28:36;12.27;;;2.90;;
21091;SDS011;10704;42.678;23.288;2024-01-25T12:31:03;10.77;;;4.40;;
21091;SDS011;10704;42.678;23.288;2024-01-25T12:33:30;11.20;;;3.47;;
21091;SDS011;10704;42.678;23.288;2024-01-25T12:35:57;13.95;;;5.38;;
21091;SDS011;10704;42.678;23.288;2024-01-25T12:38:24;8.30;;;3.50;;
21091;SDS011;10704;42.678;23.288;2024-01-25T12:40:55;10.13;;;3.13;;
21091;SDS011;10704;42.678;23.288;2024-01-25T12:43:21;10.77;;;4.07;;
21091;SDS011;10704;42.678;23.288;2024-01-25T12:45:47;8.10;;;2.55;;
21091;SDS011;10704;42.678;23.288;2024-01-25T12:48:13;9.35;;;3.08;;
21091;SDS011;10704;42.678;23.288;2024-01-25T12:50:39;9.32;;;2.65;;
21091;SDS011;10704;42.678;23.288;2024-01-25T12:53:05;12.77;;;3.22;;
21091;SDS011;10704;42.678;23.288;2024-01-25T12:55:32;9.63;;;2.72;;
21091;SDS011;10704;42.678;23.288;2024-01-25T12:57:58;10.63;;;2.97;;
21091;SDS011;10704;42.678;23.288;2024-01-25T13:00:24;11.02;;;3.00;;
21091;SDS011;10704;42.678;23.288;2024-01-25T13:02:50;9.15;;;2.80;;
21091;SDS011;10704;42.678;23.288;2024-01-25T13:05:16;8.85;;;2.70;;
21091;SDS011;10704;42.678;23.288;2024-01-25T13:07:42;9.77;;;2.47;;
21091;SDS011;10704;42.678;23.288;2024-01-25T13:10:08;7.95;;;2.95;;
21091;SDS011;10704;42.678;23.288;2024-01-25T13:12:37;9.38;;;3.03;;
21091;SDS011;10704;42.678;23.288;2024-01-25T13:15:04;7.03;;;2.30;;
21091;SDS011;10704;42.678;23.288;2024-01-25T13:17:30;8.48;;;2.60;;
21091;SDS011;10704;42.678;23.288;2024-01-25T13:19:59;9.18;;;3.20;;
21091;SDS011;10704;42.678;23.288;2024-01-25T13:22:25;10.77;;;2.72;;
21091;SDS011;10704;42.678;23.288;2024-01-25T13:24:52;12.98;;;3.65;;
21091;SDS011;10704;42.678;23.288;2024-01-25T13:27:18;8.77;;;2.72;;
21091;SDS011;10704;42.678;23.288;2024-01-25T13:29:44;9.32;;;2.63;;
21091;SDS011;10704;42.678;23.288;2024-01-25T13:32:10;17.50;;;5.10;;
21091;SDS011;10704;42.678;23.288;2024-01-25T13:34:36;19.13;;;6.75;;
21091;SDS011;10704;42.678;23.288;2024-01-25T13:37:02;13.65;;;4.55;;
21091;SDS011;10704;42.678;23.288;2024-01-25T13:39:28;14.60;;;5.45;;
21091;SDS011;10704;42.678;23.288;2024-01-25T13:41:54;11.57;;;3.70;;
21091;SDS011;10704;42.678;23.288;2024-01-25T13:44:21;18.48;;;4.55;;
21091;SDS011;10704;42.678;23.288;2024-01-25T13:46:47;13.80;;;3.95;;
21091;SDS011;10704;42.678;23.288;2024-01-25T13:49:13;10.90;;;2.97;;
21091;SDS011;10704;42.678;23.288;2024-01-25T13:51:39;11.98;;;3.40;;
21091;SDS011;10704;42.678;23.288;2024-01-25T13:54:05;11.52;;;3.95;;
21091;SDS011;10704;42.678;23.288;2024-01-25T13:56:31;8.52;;;3.20;;
21091;SDS011;10704;42.678;23.288;2024-01-25T13:58:57;8.10;;;2.90;;
21091;SDS011;10704;42.678;23.288;2024-01-25T14:01:23;9.93;;;2.92;;
21091;SDS011;10704;42.678;23.288;2024-01-25T14:03:49;10.85;;;2.65;;
21091;SDS011;10704;42.678;23.288;2024-01-25T14:06:16;7.70;;;2.80;;
21091;SDS011;10704;42.678;23.288;2024-01-25T14:08:41;11.30;;;3.10;;
21091;SDS011;10704;42.678;23.288;2024-01-25T14:11:09;13.18;;;3.40;;
21091;SDS011;10704;42.678;23.288;2024-01-25T14:13:35;7.72;;;2.78;;
21091;SDS011;10704;42.678;23.288;2024-01-25T14:16:01;10.73;;;2.72;;
21091;SDS011;10704;42.678;23.288;2024-01-25T14:18:27;8.43;;;2.78;;
21091;SDS011;10704;42.678;23.288;2024-01-25T14:20:54;7.38;;;3.10;;
21091;SDS011;10704;42.678;23.288;2024-01-25T14:23:20;10.85;;;2.90;;
21091;SDS011;10704;42.678;23.288;2024-01-25T14:25:46;10.00;;;2.55;;
21091;SDS011;10704;42.678;23.288;2024-01-25T14:28:12;11.00;;;3.20;;
21091;SDS011;10704;42.678;23.288;2024-01-25T14:30:38;8.95;;;3.67;;
21091;SDS011;10704;42.678;23.288;2024-01-25T14:33:04;9.98;;;2.85;;
21091;SDS011;10704;42.678;23.288;2024-01-25T14:35:30;11.02;;;2.72;;
21091;SDS011;10704;42.678;23.288;2024-01-25T14:37:56;11.32;;;2.83;;
21091;SDS011;10704;42.678;23.288;2024-01-25T14:40:22;9.85;;;2.72;;
21091;SDS011;10704;42.678;23.288;2024-01-25T14:42:49;10.80;;;2.88;;
21091;SDS011;10704;42.678;23.288;2024-01-25T14:45:15;7.80;;;2.38;;
21091;SDS011;10704;42.678;23.288;2024-01-25T14:47:41;7.97;;;2.20;;